Startpagina
METAR-TAF:

METAR-TAF

Vliegvelden :

Aeropuerto de Palma de Mallorca

Palma de Mallorca, Spanje

breedte: 39-33N, lengte: 002-44E, hoogte: 4 m

Actueel weer

Dit bericht is 26 minuten geleden gemaakt, om 11:00 UTC
Wind 7 kt uit het oosten, variërend tussen het noordoosten en het oostzuidoosten
Temperatuur 20°C
Vochtigheid 78%
Druk 1020 hPa
Zicht 10 km of meer
Weinig wolken op 1700 ft
Verspreide wolken op 3000 ft

METAR: LEPA 161100Z 09007KT 050V120 9999 FEW017 SCT030 20/16 Q1020 NOSIG

Tijdstip: 12:26 (11:26 UTC)

Verwachting

Dit bericht is 6 uur en het 26 minuten geleden gemaakt, om 05:00 UTC
Verwachting geldig van 16 om 06 UTC tot 17 om 06 UTC
Wind 7 kt uit het noordoosten
Zicht 10 km of meer
Verspreide wolken op 2000 ft
Kans 30% :
Tijdelijke
van 16 om 06 UTC tot 16 om 18 UTC
Zicht: 4000 m
Gebroken wolken op 1800 ft
Weinig wolken op 2000 ft, Stapelwolken.
regenbuien

TAF: LEPA 160500Z 1606/1706 05007KT 9999 SCT020 TX20/1612Z TN10/1706Z PROB30 TEMPO 1606/1618 4000 SHRA BKN018 FEW020TCU

Waarnemingen en weersverwachtingen van meer dan 4000 vliegvelden (METAR en TAF).

De beschikbare stations zijn de gele en rode punten op de kaart.

Ga met uw muis naar het station om de naam te zien.

Klik dan om waarnemingen en weersverwachtingen te zien.

kaart wijzigen: klik op de groene knoppen met een zwart kruis om in te zoomen, op de groene knop met een streepje om uit te zoomen of op de groene pijlen voor aangrenzende kaarten.


METAR-TAF: